createdAt,value
2019-05-17T00:00:03.960Z,3.70
2019-05-17T00:01:03.944Z,4.40
2019-05-17T00:02:03.940Z,3.30
2019-05-17T00:03:06.615Z,4.00
2019-05-17T00:04:03.915Z,3.20
2019-05-17T00:05:03.906Z,4.20
2019-05-17T00:06:06.477Z,3.10
2019-05-17T00:07:06.324Z,3.90
2019-05-17T00:08:03.872Z,3.10
2019-05-17T00:09:03.866Z,3.50
2019-05-17T00:10:03.857Z,3.70
2019-05-17T00:11:03.841Z,3.50
2019-05-17T00:12:03.825Z,3.50
2019-05-17T00:13:03.817Z,3.70
2019-05-17T00:14:06.167Z,4.40
2019-05-17T00:15:03.795Z,3.50
2019-05-17T00:16:03.785Z,3.10
2019-05-17T00:17:03.773Z,3.70
2019-05-17T00:18:03.759Z,3.40
2019-05-17T00:19:03.752Z,3.30
2019-05-17T00:20:03.739Z,4.10
2019-05-17T00:21:03.728Z,2.90
2019-05-17T00:22:03.713Z,3.60
2019-05-17T00:23:03.702Z,3.10
2019-05-17T00:24:03.689Z,4.60
2019-05-17T00:25:03.691Z,3.00
2019-05-17T00:26:03.669Z,3.50
2019-05-17T00:27:03.674Z,3.60
2019-05-17T00:28:03.646Z,2.90
2019-05-17T00:29:03.639Z,4.30
2019-05-17T00:30:03.629Z,3.20
2019-05-17T00:31:03.615Z,3.30
2019-05-17T00:32:03.630Z,3.20
2019-05-17T00:33:03.599Z,3.50
2019-05-17T00:34:03.586Z,2.80
2019-05-17T00:35:03.566Z,3.30
2019-05-17T00:36:03.561Z,4.40
2019-05-17T00:37:03.546Z,3.50
2019-05-17T00:38:03.534Z,3.90
2019-05-17T00:39:03.525Z,3.40
2019-05-17T00:40:03.512Z,3.10
2019-05-17T00:41:03.498Z,3.80
2019-05-17T00:42:03.493Z,3.00
2019-05-17T00:43:03.487Z,3.30
2019-05-17T00:44:03.470Z,3.00
2019-05-17T00:45:03.458Z,2.60
2019-05-17T00:46:03.452Z,2.80
2019-05-17T00:47:03.438Z,3.00
2019-05-17T00:48:03.432Z,3.40
2019-05-17T00:49:03.410Z,3.30
2019-05-17T00:50:03.414Z,2.50
2019-05-17T00:51:03.403Z,2.80
2019-05-17T00:52:03.382Z,3.40
2019-05-17T00:53:03.371Z,2.90
2019-05-17T00:54:03.359Z,3.10
2019-05-17T00:55:03.358Z,4.40
2019-05-17T00:56:03.332Z,3.90
2019-05-17T00:57:03.322Z,4.00
2019-05-17T00:58:03.310Z,3.70
2019-05-17T00:59:03.302Z,3.10
2019-05-17T01:00:03.292Z,3.90
2019-05-17T01:01:03.313Z,3.80
2019-05-17T01:02:03.269Z,3.40
2019-05-17T01:03:03.260Z,3.90
2019-05-17T01:04:03.249Z,3.50
2019-05-17T01:05:03.242Z,4.10
2019-05-17T01:06:03.225Z,4.40
2019-05-17T01:07:03.212Z,3.30
2019-05-17T01:08:03.205Z,3.60
2019-05-17T01:09:04.164Z,4.10
2019-05-17T01:10:03.177Z,3.90
2019-05-17T01:11:03.165Z,3.90
2019-05-17T01:12:03.157Z,3.60
2019-05-17T01:13:03.141Z,4.20
2019-05-17T01:14:03.131Z,3.50
2019-05-17T01:15:03.120Z,3.80
2019-05-17T01:16:03.115Z,4.30
2019-05-17T01:17:03.103Z,4.40
2019-05-17T01:18:03.113Z,3.10
2019-05-17T01:19:03.084Z,4.10
2019-05-17T01:20:03.062Z,3.40
2019-05-17T01:21:03.058Z,3.10
2019-05-17T01:22:03.044Z,3.70
2019-05-17T01:23:03.045Z,3.70
2019-05-17T01:24:03.017Z,3.90
2019-05-17T01:25:03.014Z,3.60
2019-05-17T01:26:02.999Z,3.90
2019-05-17T01:27:02.989Z,3.20
2019-05-17T01:28:02.991Z,3.50
2019-05-17T01:29:02.972Z,3.80
2019-05-17T01:30:02.950Z,3.20
2019-05-17T01:31:02.943Z,2.90
2019-05-17T01:32:02.929Z,3.60
2019-05-17T01:33:02.923Z,3.70
2019-05-17T01:34:02.922Z,3.60
2019-05-17T01:35:02.897Z,3.70
2019-05-17T01:36:02.885Z,3.10
2019-05-17T01:37:02.875Z,3.60
2019-05-17T01:38:02.875Z,2.80
2019-05-17T01:39:14.293Z,3.40
2019-05-17T01:40:03.849Z,3.50
2019-05-17T01:41:02.833Z,2.80
2019-05-17T01:42:02.821Z,3.10
2019-05-17T01:43:02.812Z,2.80
2019-05-17T01:44:02.795Z,3.30
2019-05-17T01:45:02.800Z,3.00
2019-05-17T01:46:02.775Z,2.80
2019-05-17T01:47:02.776Z,2.90
2019-05-17T01:48:02.753Z,3.00
2019-05-17T01:49:02.738Z,3.00
2019-05-17T01:50:02.733Z,4.00
2019-05-17T01:51:02.716Z,3.10
2019-05-17T01:52:02.709Z,2.90
2019-05-17T01:53:02.709Z,3.10
2019-05-17T01:54:02.681Z,2.90
2019-05-17T01:55:02.686Z,3.60
2019-05-17T01:56:02.658Z,2.40
2019-05-17T01:57:02.652Z,3.10
2019-05-17T01:58:02.643Z,2.80
2019-05-17T01:59:02.626Z,3.30
2019-05-17T02:00:02.622Z,3.20
2019-05-17T02:01:02.611Z,3.80
2019-05-17T02:02:02.595Z,3.30
2019-05-17T02:03:02.631Z,4.00
2019-05-17T02:04:02.575Z,3.60
2019-05-17T02:05:02.572Z,3.60
2019-05-17T02:06:02.548Z,3.90
2019-05-17T02:07:02.547Z,3.00
2019-05-17T02:08:02.534Z,3.10
2019-05-17T02:09:02.518Z,3.30
2019-05-17T02:10:02.527Z,3.20
2019-05-17T02:11:02.502Z,3.20
2019-05-17T02:12:02.480Z,4.40
2019-05-17T02:13:02.472Z,3.30
2019-05-17T02:14:02.478Z,2.90
2019-05-17T02:15:02.660Z,3.50
2019-05-17T02:16:02.437Z,3.00
2019-05-17T02:17:02.441Z,3.40
2019-05-17T02:18:02.417Z,3.50
2019-05-17T02:19:02.408Z,3.30
2019-05-17T02:20:02.394Z,3.60
2019-05-17T02:21:02.382Z,3.40
2019-05-17T02:22:02.380Z,3.50
2019-05-17T02:23:02.362Z,3.40
2019-05-17T02:24:02.354Z,3.60
2019-05-17T02:25:02.365Z,4.40
2019-05-17T02:26:02.329Z,3.90
2019-05-17T02:27:02.321Z,3.90
2019-05-17T02:28:02.320Z,3.70
2019-05-17T02:29:02.295Z,3.30
2019-05-17T02:30:02.933Z,3.80
2019-05-17T02:31:03.444Z,3.10
2019-05-17T02:32:03.771Z,4.00
2019-05-17T02:33:03.704Z,2.70
2019-05-17T02:34:03.037Z,3.30
2019-05-17T02:35:03.335Z,3.30
2019-05-17T02:36:02.995Z,3.40
2019-05-17T02:37:03.002Z,3.30
2019-05-17T02:38:03.064Z,3.80
2019-05-17T02:39:03.599Z,3.00
2019-05-17T02:40:07.669Z,3.40
2019-05-17T02:41:03.633Z,3.00
2019-05-17T02:42:02.896Z,2.80
2019-05-17T02:43:03.171Z,3.70
2019-05-17T02:44:02.458Z,3.10
2019-05-17T02:45:03.178Z,2.90
2019-05-17T02:46:03.762Z,3.30
2019-05-17T02:47:03.196Z,3.10
2019-05-17T02:48:03.673Z,3.00
2019-05-17T02:49:03.086Z,3.30
2019-05-17T02:50:05.674Z,3.30
2019-05-17T02:51:03.502Z,3.50
2019-05-17T02:52:03.171Z,3.50
2019-05-17T02:53:04.442Z,3.20
2019-05-17T02:54:04.209Z,3.40
2019-05-17T02:55:03.912Z,2.80
2019-05-17T02:56:03.197Z,3.70
2019-05-17T02:57:03.072Z,3.20
2019-05-17T02:58:03.146Z,3.10
2019-05-17T02:59:03.602Z,3.00
2019-05-17T03:00:04.532Z,3.30
2019-05-17T03:01:03.646Z,2.70
2019-05-17T03:02:03.473Z,2.60
2019-05-17T03:03:03.481Z,3.10
2019-05-17T03:04:03.981Z,3.70
2019-05-17T03:05:03.953Z,3.10
2019-05-17T03:06:03.168Z,3.00
2019-05-17T03:07:03.754Z,3.30
2019-05-17T03:08:04.119Z,3.70
2019-05-17T03:09:03.500Z,3.50
2019-05-17T03:10:17.069Z,3.60
2019-05-17T03:11:03.485Z,3.30
2019-05-17T03:12:03.296Z,2.90
2019-05-17T03:13:04.144Z,2.70
2019-05-17T03:14:04.059Z,2.90
2019-05-17T03:15:04.190Z,3.00
2019-05-17T03:16:03.435Z,2.90
2019-05-17T03:17:03.301Z,4.10
2019-05-17T03:18:03.660Z,3.70
2019-05-17T03:19:04.272Z,3.40
2019-05-17T03:20:03.911Z,2.70
2019-05-17T03:21:03.816Z,3.60
2019-05-17T03:22:07.236Z,4.80
2019-05-17T03:23:03.769Z,5.40
2019-05-17T03:24:03.210Z,6.40
2019-05-17T03:25:03.246Z,5.70
2019-05-17T03:26:03.668Z,5.20
2019-05-17T03:27:03.020Z,5.30
2019-05-17T03:28:03.000Z,5.20
2019-05-17T03:29:03.354Z,5.10
2019-05-17T03:30:04.048Z,5.60
2019-05-17T03:31:07.778Z,5.40
2019-05-17T03:32:08.749Z,5.10
2019-05-17T03:33:07.400Z,5.20
2019-05-17T03:34:06.550Z,4.70
2019-05-17T03:35:06.720Z,5.90
2019-05-17T03:36:06.592Z,5.30
2019-05-17T03:37:06.379Z,5.50
2019-05-17T03:38:03.656Z,6.00
2019-05-17T03:39:03.061Z,5.70
2019-05-17T03:40:04.764Z,5.70
2019-05-17T03:41:13.943Z,5.30
2019-05-17T03:42:02.829Z,5.20
2019-05-17T03:43:02.854Z,4.60
2019-05-17T03:44:03.246Z,5.70
2019-05-17T03:45:03.073Z,5.20
2019-05-17T03:46:02.716Z,5.20
2019-05-17T03:47:02.395Z,4.80
2019-05-17T03:48:04.642Z,5.50
2019-05-17T03:49:03.878Z,4.50
2019-05-17T03:50:03.195Z,4.60
2019-05-17T03:51:02.630Z,6.20
2019-05-17T03:52:02.813Z,4.70
2019-05-17T03:53:02.403Z,4.50
2019-05-17T03:54:02.335Z,5.40
2019-05-17T03:55:03.870Z,5.10
2019-05-17T03:56:02.984Z,5.10
2019-05-17T03:57:02.899Z,5.50
2019-05-17T03:58:03.392Z,4.50
2019-05-17T03:59:03.844Z,4.50
2019-05-17T04:00:03.825Z,5.00
2019-05-17T04:01:04.085Z,5.30
2019-05-17T04:02:03.282Z,5.90
2019-05-17T04:03:02.952Z,5.10
2019-05-17T04:04:02.894Z,5.80
2019-05-17T04:05:04.394Z,5.60
2019-05-17T04:06:03.907Z,5.90
2019-05-17T04:07:03.469Z,5.00
2019-05-17T04:08:03.512Z,5.60
2019-05-17T04:09:03.604Z,5.60
2019-05-17T04:10:04.433Z,4.90
2019-05-17T04:11:17.656Z,4.70
2019-05-17T04:12:02.943Z,5.40
2019-05-17T04:13:04.210Z,5.10
2019-05-17T04:14:02.978Z,5.90
2019-05-17T04:15:03.158Z,5.60
2019-05-17T04:16:05.671Z,5.70
2019-05-17T04:17:03.006Z,6.00
2019-05-17T04:18:04.163Z,6.10
2019-05-17T04:19:03.173Z,5.20
2019-05-17T04:20:03.596Z,6.00
2019-05-17T04:21:03.456Z,5.80
2019-05-17T04:22:03.513Z,5.40
2019-05-17T04:23:03.901Z,5.80
2019-05-17T04:24:03.194Z,5.80
2019-05-17T04:25:03.051Z,5.40
2019-05-17T04:26:03.829Z,5.80
2019-05-17T04:27:03.660Z,5.20
2019-05-17T04:28:02.797Z,5.90
2019-05-17T04:29:03.599Z,6.00
2019-05-17T04:30:03.664Z,6.00
2019-05-17T04:31:02.870Z,5.60
2019-05-17T04:32:03.938Z,5.90
2019-05-17T04:33:03.567Z,6.80
2019-05-17T04:34:03.069Z,6.30
2019-05-17T04:35:03.730Z,6.00
2019-05-17T04:36:02.594Z,6.10
2019-05-17T04:37:03.978Z,5.30
2019-05-17T04:38:04.294Z,6.20
2019-05-17T04:39:02.437Z,6.50
2019-05-17T04:40:03.517Z,6.10
2019-05-17T04:41:03.366Z,5.60
2019-05-17T04:42:03.771Z,6.40
2019-05-17T04:43:03.298Z,6.10
2019-05-17T04:44:02.779Z,5.10
2019-05-17T04:45:03.619Z,5.70
2019-05-17T04:46:02.748Z,5.70
2019-05-17T04:47:03.207Z,6.50
2019-05-17T04:48:03.640Z,6.10
2019-05-17T04:49:02.973Z,6.20
2019-05-17T04:50:04.052Z,6.00
2019-05-17T04:51:02.500Z,6.30
2019-05-17T04:52:03.581Z,6.00
2019-05-17T04:53:02.700Z,6.20
2019-05-17T04:54:03.285Z,5.90
2019-05-17T04:55:03.652Z,6.30
2019-05-17T04:56:03.107Z,6.50
2019-05-17T04:57:02.698Z,6.00
2019-05-17T04:58:03.861Z,6.20
2019-05-17T04:59:03.263Z,6.40
2019-05-17T05:00:03.856Z,6.80
2019-05-17T05:01:03.616Z,6.40
2019-05-17T05:02:03.031Z,6.30
2019-05-17T05:03:03.474Z,6.00
2019-05-17T05:04:03.491Z,7.10
2019-05-17T05:05:03.308Z,6.00
2019-05-17T05:06:02.972Z,6.40
2019-05-17T05:07:03.220Z,6.50
2019-05-17T05:08:03.139Z,6.10
2019-05-17T05:09:02.529Z,7.00
2019-05-17T05:10:03.020Z,6.60
2019-05-17T05:11:03.222Z,6.10
2019-05-17T05:12:05.393Z,7.00
2019-05-17T05:13:03.077Z,6.80
2019-05-17T05:14:02.869Z,6.80
2019-05-17T05:15:03.244Z,6.50
2019-05-17T05:16:02.838Z,6.50
2019-05-17T05:17:02.588Z,6.10
2019-05-17T05:18:02.363Z,6.50
2019-05-17T05:19:02.979Z,5.90
2019-05-17T05:20:02.786Z,6.90
2019-05-17T05:21:03.198Z,6.40
2019-05-17T05:22:04.355Z,6.70
2019-05-17T05:23:02.548Z,6.60
2019-05-17T05:24:02.424Z,6.40
2019-05-17T05:25:02.187Z,7.10
2019-05-17T05:26:02.804Z,6.00
2019-05-17T05:27:02.515Z,7.80
2019-05-17T05:28:02.299Z,6.60
2019-05-17T05:29:02.096Z,5.90
2019-05-17T05:30:02.869Z,6.00
2019-05-17T05:31:01.988Z,6.70
2019-05-17T05:32:02.462Z,6.90
2019-05-17T05:33:02.018Z,6.10
2019-05-17T05:34:01.904Z,6.80
2019-05-17T05:35:02.894Z,6.60
2019-05-17T05:36:02.240Z,6.60
2019-05-17T05:37:02.139Z,7.10
2019-05-17T05:38:02.196Z,7.30
2019-05-17T05:39:02.205Z,7.20
2019-05-17T05:40:02.049Z,6.60
2019-05-17T05:41:01.859Z,7.60
2019-05-17T05:42:08.103Z,6.30
2019-05-17T05:43:02.370Z,6.90
2019-05-17T05:44:01.906Z,5.90
2019-05-17T05:45:00.089Z,7.00
2019-05-17T05:46:02.317Z,7.80
2019-05-17T05:47:02.186Z,6.80
2019-05-17T05:48:01.848Z,6.70
2019-05-17T05:49:01.850Z,6.60
2019-05-17T05:50:01.834Z,7.50
2019-05-17T05:51:02.859Z,6.60
2019-05-17T05:52:02.022Z,7.00
2019-05-17T05:53:01.964Z,6.80
2019-05-17T05:54:01.660Z,7.10
2019-05-17T05:55:01.473Z,7.20
2019-05-17T05:56:02.911Z,7.00
2019-05-17T05:57:02.336Z,7.10
2019-05-17T05:57:59.954Z,6.60
2019-05-17T05:58:59.944Z,6.30
2019-05-17T06:00:02.236Z,6.60
2019-05-17T06:01:02.349Z,7.60
2019-05-17T06:02:01.758Z,7.10
2019-05-17T06:02:59.890Z,7.20
2019-05-17T06:03:59.873Z,7.00
2019-05-17T06:05:02.026Z,7.10
2019-05-17T06:06:01.830Z,6.80
2019-05-17T06:06:59.854Z,7.10
2019-05-17T06:07:59.833Z,7.00
2019-05-17T06:08:59.830Z,6.80
2019-05-17T06:10:02.041Z,6.50
2019-05-17T06:11:01.916Z,6.50
2019-05-17T06:12:02.245Z,7.10
2019-05-17T06:13:02.613Z,7.00
2019-05-17T06:14:01.632Z,6.30
2019-05-17T06:14:59.770Z,6.60
2019-05-17T06:15:59.741Z,6.80
2019-05-17T06:17:02.337Z,7.70
2019-05-17T06:17:59.727Z,6.90
2019-05-17T06:18:59.710Z,7.60
2019-05-17T06:19:59.698Z,7.00
2019-05-17T06:20:59.747Z,7.90
2019-05-17T06:21:59.686Z,8.10
2019-05-17T06:22:59.666Z,6.80
2019-05-17T06:23:59.647Z,8.50
2019-05-17T06:24:59.639Z,8.10
2019-05-17T06:26:03.332Z,7.20
2019-05-17T06:27:01.691Z,7.00
2019-05-17T06:28:01.590Z,7.60
2019-05-17T06:28:59.597Z,7.70
2019-05-17T06:30:01.542Z,7.90
2019-05-17T06:30:59.572Z,7.00
2019-05-17T06:31:59.558Z,7.30
2019-05-17T06:32:59.542Z,7.50
2019-05-17T06:34:01.806Z,6.90
2019-05-17T06:35:01.673Z,7.60
2019-05-17T06:36:02.408Z,7.10
2019-05-17T06:37:02.052Z,8.20
2019-05-17T06:38:01.774Z,6.80
2019-05-17T06:38:59.479Z,7.90
2019-05-17T06:40:02.092Z,7.30
2019-05-17T06:41:01.462Z,7.60
2019-05-17T06:41:59.454Z,7.50
2019-05-17T06:42:59.475Z,7.30
2019-05-17T06:43:59.422Z,7.50
2019-05-17T06:45:01.952Z,7.00
2019-05-17T06:46:01.570Z,7.70
2019-05-17T06:46:59.392Z,7.30
2019-05-17T06:47:59.485Z,6.50
2019-05-17T06:48:59.362Z,7.60
2019-05-17T06:49:59.358Z,7.30
2019-05-17T06:50:59.360Z,7.60
2019-05-17T06:51:59.329Z,6.60
2019-05-17T06:52:59.339Z,7.10
2019-05-17T06:54:01.620Z,7.20
2019-05-17T06:54:59.298Z,7.10
2019-05-17T06:55:59.284Z,7.70
2019-05-17T06:56:59.274Z,7.60
2019-05-17T06:58:01.532Z,7.40
2019-05-17T06:58:59.256Z,6.90
2019-05-17T07:00:00.149Z,5.50
2019-05-17T07:00:59.951Z,7.00
2019-05-17T07:01:59.748Z,6.40
2019-05-17T07:03:00.668Z,6.70
2019-05-17T07:04:00.296Z,6.80
2019-05-17T07:05:01.326Z,6.00
2019-05-17T07:05:59.610Z,6.60
2019-05-17T07:07:00.090Z,6.90
2019-05-17T07:08:00.263Z,6.90
2019-05-17T07:09:00.973Z,7.20
2019-05-17T07:10:00.531Z,7.20
2019-05-17T07:10:59.801Z,6.80
2019-05-17T07:11:59.627Z,6.80
2019-05-17T07:13:01.878Z,6.80
2019-05-17T07:13:59.772Z,6.70
2019-05-17T07:15:01.467Z,6.70
2019-05-17T07:15:59.759Z,7.00
2019-05-17T07:16:59.617Z,7.10
2019-05-17T07:17:59.980Z,6.60
2019-05-17T07:18:59.730Z,6.90
2019-05-17T07:19:59.719Z,6.50
2019-05-17T07:21:02.866Z,7.00
2019-05-17T07:22:00.018Z,6.80
2019-05-17T07:23:00.423Z,6.60
2019-05-17T07:23:59.484Z,7.40
2019-05-17T07:24:59.782Z,6.40
2019-05-17T07:25:59.599Z,7.20
2019-05-17T07:26:59.245Z,6.80
2019-05-17T07:28:00.482Z,7.00
2019-05-17T07:28:59.329Z,7.70
2019-05-17T07:29:59.310Z,7.90
2019-05-17T07:30:59.617Z,7.70
2019-05-17T07:32:00.367Z,7.60
2019-05-17T07:33:00.354Z,7.00
2019-05-17T07:33:59.866Z,7.80
2019-05-17T07:35:00.086Z,8.20
2019-05-17T07:35:59.551Z,7.50
2019-05-17T07:36:59.757Z,7.60
2019-05-17T07:37:59.558Z,7.70
2019-05-17T07:39:00.801Z,7.80
2019-05-17T07:40:04.703Z,7.80
2019-05-17T07:40:59.839Z,8.20
2019-05-17T07:41:59.980Z,8.00
2019-05-17T07:43:09.825Z,7.50
2019-05-17T07:44:00.402Z,8.30
2019-05-17T07:45:00.560Z,8.30
2019-05-17T07:46:00.491Z,8.20
2019-05-17T07:47:00.166Z,9.10
2019-05-17T07:48:00.158Z,8.50
2019-05-17T07:49:00.381Z,9.10
2019-05-17T07:50:01.049Z,9.20
2019-05-17T07:50:59.410Z,8.80
2019-05-17T07:52:00.582Z,7.80
2019-05-17T07:53:00.652Z,8.00
2019-05-17T07:53:59.714Z,8.40
2019-05-17T07:55:02.501Z,9.10
2019-05-17T07:55:59.622Z,8.80
2019-05-17T07:57:00.271Z,7.70
2019-05-17T07:58:00.225Z,8.00
2019-05-17T07:59:00.010Z,7.60
2019-05-17T07:59:59.983Z,8.00
2019-05-17T08:00:58.538Z,8.40
2019-05-17T08:01:59.731Z,7.30
2019-05-17T08:02:59.915Z,7.80
2019-05-17T08:04:00.699Z,7.70
2019-05-17T08:05:00.430Z,7.10
2019-05-17T08:05:59.952Z,7.30
2019-05-17T08:06:59.825Z,7.70
2019-05-17T08:08:00.098Z,8.00
2019-05-17T08:09:01.281Z,7.80
2019-05-17T08:10:00.189Z,7.90
2019-05-17T08:11:00.364Z,8.10
2019-05-17T08:11:59.719Z,6.90
2019-05-17T08:12:59.922Z,7.90
2019-05-17T08:13:59.761Z,8.20
2019-05-17T08:14:59.842Z,7.40
2019-05-17T08:15:59.491Z,7.80
2019-05-17T08:16:59.871Z,8.30
2019-05-17T08:17:59.376Z,7.40
2019-05-17T08:19:00.317Z,8.90
2019-05-17T08:20:00.672Z,9.50
2019-05-17T08:20:59.683Z,8.40
2019-05-17T08:21:59.704Z,7.70
2019-05-17T08:22:59.533Z,7.40
2019-05-17T08:24:00.053Z,7.30
2019-05-17T08:25:00.046Z,7.50
2019-05-17T08:26:00.447Z,7.80
2019-05-17T08:26:59.932Z,6.80
2019-05-17T08:27:59.511Z,8.10
2019-05-17T08:29:00.350Z,8.00
2019-05-17T08:29:59.727Z,7.00
2019-05-17T08:31:00.904Z,7.80
2019-05-17T08:32:00.239Z,7.30
2019-05-17T08:33:00.758Z,7.50
2019-05-17T08:34:00.057Z,7.40
2019-05-17T08:35:00.325Z,6.50
2019-05-17T08:35:59.750Z,7.00
2019-05-17T08:36:58.268Z,6.60
2019-05-17T08:38:00.462Z,7.10
2019-05-17T08:38:59.662Z,7.10
2019-05-17T08:40:00.061Z,7.60
2019-05-17T08:41:00.652Z,7.30
2019-05-17T08:42:01.197Z,8.20
2019-05-17T08:43:00.132Z,7.70
2019-05-17T08:44:00.477Z,7.90
2019-05-17T08:45:00.161Z,7.70
2019-05-17T08:45:59.330Z,8.10
2019-05-17T08:46:59.501Z,7.10
2019-05-17T08:48:00.187Z,7.40
2019-05-17T08:49:00.116Z,7.50
2019-05-17T08:50:00.223Z,8.00
2019-05-17T08:51:00.079Z,7.40
2019-05-17T08:51:59.440Z,6.70
2019-05-17T08:52:59.905Z,7.20
2019-05-17T08:54:00.020Z,7.40
2019-05-17T08:55:00.141Z,6.80
2019-05-17T08:55:57.929Z,7.70
2019-05-17T08:57:00.497Z,7.50
2019-05-17T08:58:00.839Z,7.20
2019-05-17T08:58:57.890Z,6.90
2019-05-17T09:00:00.497Z,6.90
2019-05-17T09:01:00.054Z,7.80
2019-05-17T09:02:00.026Z,6.60
2019-05-17T09:02:59.936Z,7.00
2019-05-17T09:03:59.892Z,6.70
2019-05-17T09:05:00.267Z,7.00
2019-05-17T09:06:01.529Z,9.40
2019-05-17T09:06:59.719Z,7.30
2019-05-17T09:07:59.965Z,6.60
2019-05-17T09:08:57.776Z,6.40
2019-05-17T09:09:57.767Z,7.80
2019-05-17T09:11:00.095Z,6.30
2019-05-17T09:11:59.598Z,7.20
2019-05-17T09:12:59.764Z,7.00
2019-05-17T09:14:01.621Z,8.10
2019-05-17T09:14:57.705Z,7.60
2019-05-17T09:16:00.033Z,7.80
2019-05-17T09:17:00.247Z,7.20
2019-05-17T09:18:00.131Z,6.70
2019-05-17T09:18:57.659Z,7.00
2019-05-17T09:19:57.663Z,7.50
2019-05-17T09:21:00.078Z,7.00
2019-05-17T09:21:59.697Z,6.60
2019-05-17T09:22:59.929Z,6.90
2019-05-17T09:23:59.600Z,6.90
2019-05-17T09:24:59.598Z,7.80
2019-05-17T09:25:59.504Z,7.20
2019-05-17T09:26:59.731Z,7.40
2019-05-17T09:27:57.555Z,7.00
2019-05-17T09:28:57.554Z,7.80
2019-05-17T09:29:59.883Z,7.30
2019-05-17T09:30:59.694Z,7.80
2019-05-17T09:31:59.809Z,7.20
2019-05-17T09:33:00.112Z,6.70
2019-05-17T09:33:57.519Z,7.10
2019-05-17T09:34:57.483Z,6.70
2019-05-17T09:35:57.466Z,7.00
2019-05-17T09:36:57.451Z,6.30
2019-05-17T09:37:57.450Z,6.40
2019-05-17T09:38:57.428Z,6.80
2019-05-17T09:39:59.687Z,7.20
2019-05-17T09:40:59.723Z,6.60
2019-05-17T09:41:59.471Z,6.70
2019-05-17T09:42:57.386Z,5.90
2019-05-17T09:44:09.653Z,7.30
2019-05-17T09:45:00.403Z,7.30
2019-05-17T09:45:57.356Z,8.00
2019-05-17T09:46:59.439Z,7.30
2019-05-17T09:47:57.326Z,7.20
2019-05-17T09:48:57.332Z,7.80
2019-05-17T09:49:57.312Z,7.60
2019-05-17T09:50:59.728Z,6.60
2019-05-17T09:51:57.283Z,7.20
2019-05-17T09:52:57.283Z,7.50
2019-05-17T09:53:57.260Z,6.60
2019-05-17T09:54:57.269Z,6.30
2019-05-17T09:55:57.239Z,6.40
2019-05-17T09:56:57.230Z,5.80
2019-05-17T09:57:57.213Z,6.60
2019-05-17T09:58:57.203Z,6.50
2019-05-17T09:59:57.200Z,6.00
2019-05-17T10:00:57.181Z,6.30
2019-05-17T10:01:57.180Z,6.40
2019-05-17T10:02:57.158Z,6.00
2019-05-17T10:03:57.150Z,6.10
2019-05-17T10:04:57.136Z,6.30
2019-05-17T10:05:57.139Z,5.80
2019-05-17T10:06:59.266Z,6.80
2019-05-17T10:07:57.123Z,5.80
2019-05-17T10:08:57.092Z,5.70
2019-05-17T10:09:59.552Z,5.60
2019-05-17T10:11:05.923Z,6.00
2019-05-17T10:11:59.959Z,5.60
2019-05-17T10:12:57.089Z,6.40
2019-05-17T10:14:00.580Z,5.70
2019-05-17T10:14:57.021Z,6.00
2019-05-17T10:15:57.010Z,5.80
2019-05-17T10:16:57.003Z,6.00
2019-05-17T10:17:57.054Z,5.60
2019-05-17T10:18:57.063Z,5.90
2019-05-17T10:19:56.965Z,6.60
2019-05-17T10:20:56.954Z,6.60
2019-05-17T10:21:56.946Z,5.80
2019-05-17T10:22:59.428Z,5.70
2019-05-17T10:23:56.945Z,5.80
2019-05-17T10:24:56.934Z,5.70
2019-05-17T10:25:56.902Z,5.80
2019-05-17T10:26:56.905Z,5.50
2019-05-17T10:27:56.889Z,5.40
2019-05-17T10:28:59.281Z,5.50
2019-05-17T10:29:56.851Z,6.50
2019-05-17T10:30:56.853Z,5.20
2019-05-17T10:31:56.830Z,5.60
2019-05-17T10:32:56.817Z,5.30
2019-05-17T10:33:58.902Z,5.40
2019-05-17T10:34:56.799Z,5.40
2019-05-17T10:35:56.801Z,5.40
2019-05-17T10:36:56.771Z,6.10
2019-05-17T10:37:59.347Z,5.30
2019-05-17T10:38:58.896Z,5.60
2019-05-17T10:39:56.748Z,5.50
2019-05-17T10:40:56.742Z,5.20
2019-05-17T10:41:56.743Z,5.20
2019-05-17T10:42:56.705Z,4.80
2019-05-17T10:43:56.691Z,4.50
2019-05-17T10:44:56.702Z,4.70
2019-05-17T10:45:56.675Z,4.60
2019-05-17T10:46:56.662Z,4.70
2019-05-17T10:47:56.650Z,5.10
2019-05-17T10:48:56.639Z,4.60
2019-05-17T10:49:56.632Z,4.70
2019-05-17T10:50:56.615Z,5.10
2019-05-17T10:51:56.610Z,5.10
2019-05-17T10:52:56.604Z,5.10
2019-05-17T10:53:56.586Z,4.70
2019-05-17T10:54:56.573Z,5.50
2019-05-17T10:55:56.558Z,5.00
2019-05-17T10:56:56.545Z,4.90
2019-05-17T10:57:56.536Z,4.70
2019-05-17T10:58:56.525Z,4.30
2019-05-17T10:59:56.513Z,4.50
2019-05-17T11:00:56.503Z,4.80
2019-05-17T11:01:56.527Z,4.40
2019-05-17T11:02:56.488Z,4.40
2019-05-17T11:03:56.483Z,4.50
2019-05-17T11:04:56.454Z,4.50
2019-05-17T11:05:56.452Z,4.30
2019-05-17T11:06:56.436Z,4.40
2019-05-17T11:07:56.423Z,4.00
2019-05-17T11:08:56.416Z,4.30
2019-05-17T11:09:56.427Z,4.80
2019-05-17T11:10:56.436Z,4.50
2019-05-17T11:11:56.386Z,4.60
2019-05-17T11:12:56.369Z,5.00
2019-05-17T11:13:56.359Z,5.10
2019-05-17T11:15:10.235Z,4.40
2019-05-17T11:15:57.336Z,4.70
2019-05-17T11:16:56.324Z,3.90
2019-05-17T11:17:56.310Z,4.20
2019-05-17T11:18:56.308Z,4.30
2019-05-17T11:19:56.292Z,4.60
2019-05-17T11:20:56.298Z,4.20
2019-05-17T11:21:56.270Z,4.60
2019-05-17T11:22:56.265Z,4.90
2019-05-17T11:23:56.266Z,4.60
2019-05-17T11:24:56.231Z,5.00
2019-05-17T11:25:56.240Z,4.40
2019-05-17T11:26:56.208Z,4.70
2019-05-17T11:27:56.198Z,4.80
2019-05-17T11:28:56.191Z,4.30
2019-05-17T11:29:56.175Z,5.00
2019-05-17T11:30:56.169Z,4.60
2019-05-17T11:31:56.193Z,4.60
2019-05-17T11:32:56.144Z,4.80
2019-05-17T11:33:56.136Z,4.40
2019-05-17T11:34:56.141Z,4.20
2019-05-17T11:35:56.112Z,4.70
2019-05-17T11:36:56.117Z,4.40
2019-05-17T11:37:56.106Z,4.30
2019-05-17T11:38:56.076Z,4.80
2019-05-17T11:39:56.067Z,4.20
2019-05-17T11:40:56.151Z,4.60
2019-05-17T11:41:56.049Z,5.30
2019-05-17T11:42:56.045Z,4.60
2019-05-17T11:43:56.036Z,5.00
2019-05-17T11:44:56.019Z,4.50
2019-05-17T11:45:56.003Z,4.60
2019-05-17T11:46:55.995Z,4.70
2019-05-17T11:47:56.091Z,4.60
2019-05-17T11:48:55.987Z,4.10
2019-05-17T11:49:55.956Z,4.00
2019-05-17T11:50:55.946Z,4.70
2019-05-17T11:51:55.934Z,4.40
2019-05-17T11:52:55.921Z,4.30
2019-05-17T11:53:55.920Z,3.90
2019-05-17T11:54:55.919Z,4.00
2019-05-17T11:55:55.893Z,3.90
2019-05-17T11:56:55.880Z,5.00
2019-05-17T11:57:55.865Z,4.00
2019-05-17T11:58:55.854Z,3.90
2019-05-17T11:59:55.853Z,4.10
2019-05-17T12:00:55.833Z,4.00
2019-05-17T12:01:55.836Z,3.70
2019-05-17T12:02:55.812Z,4.30
2019-05-17T12:03:55.803Z,4.30
2019-05-17T12:04:55.798Z,3.90
2019-05-17T12:05:55.787Z,4.20
2019-05-17T12:06:55.773Z,4.30
2019-05-17T12:07:55.757Z,4.20
2019-05-17T12:08:55.746Z,4.00
2019-05-17T12:09:55.737Z,4.00
2019-05-17T12:10:55.887Z,4.30
2019-05-17T12:11:55.736Z,4.50
2019-05-17T12:12:55.712Z,4.40
2019-05-17T12:13:55.690Z,4.30
2019-05-17T12:14:55.707Z,4.10
2019-05-17T12:15:55.668Z,4.30
2019-05-17T12:16:55.678Z,4.20
2019-05-17T12:17:55.651Z,4.50
2019-05-17T12:18:55.637Z,4.80
2019-05-17T12:19:55.620Z,4.10
2019-05-17T12:20:55.663Z,4.80
2019-05-17T12:21:55.615Z,5.20
2019-05-17T12:22:55.604Z,4.40
2019-05-17T12:23:55.581Z,4.10
2019-05-17T12:24:55.564Z,4.00
2019-05-17T12:25:55.560Z,4.20
2019-05-17T12:26:55.546Z,3.90
2019-05-17T12:27:55.540Z,4.40
2019-05-17T12:28:55.524Z,4.40
2019-05-17T12:29:55.515Z,4.20
2019-05-17T12:30:55.517Z,4.10
2019-05-17T12:31:55.497Z,4.10
2019-05-17T12:32:55.480Z,4.40
2019-05-17T12:33:55.470Z,4.60
2019-05-17T12:34:55.460Z,4.40
2019-05-17T12:35:55.449Z,3.80
2019-05-17T12:36:55.438Z,4.10
2019-05-17T12:37:55.426Z,4.10
2019-05-17T12:38:55.420Z,3.80
2019-05-17T12:39:55.421Z,4.00
2019-05-17T12:40:55.400Z,3.20
2019-05-17T12:41:55.530Z,3.90
2019-05-17T12:42:55.430Z,3.80
2019-05-17T12:43:55.366Z,3.50
2019-05-17T12:44:55.347Z,3.40
2019-05-17T12:46:00.581Z,3.70
2019-05-17T12:46:56.360Z,3.30
2019-05-17T12:47:55.319Z,3.70
2019-05-17T12:48:55.318Z,4.10
2019-05-17T12:49:55.306Z,4.30
2019-05-17T12:50:55.287Z,3.80
2019-05-17T12:51:55.283Z,3.80
2019-05-17T12:52:55.270Z,3.50
2019-05-17T12:53:55.247Z,3.80
2019-05-17T12:54:55.236Z,4.10
2019-05-17T12:55:55.241Z,3.90
2019-05-17T12:56:55.225Z,3.90
2019-05-17T12:57:55.208Z,3.50
2019-05-17T12:58:55.203Z,3.80
2019-05-17T12:59:55.196Z,3.40
2019-05-17T13:00:55.186Z,3.70
2019-05-17T13:01:55.177Z,3.80
2019-05-17T13:02:55.150Z,4.20
2019-05-17T13:03:55.140Z,4.00
2019-05-17T13:04:55.126Z,4.00
2019-05-17T13:05:55.123Z,4.00
2019-05-17T13:06:55.103Z,3.70
2019-05-17T13:07:55.099Z,3.90
2019-05-17T13:08:55.118Z,3.50
2019-05-17T13:09:55.083Z,4.10
2019-05-17T13:10:55.059Z,4.10
2019-05-17T13:11:55.051Z,3.50
2019-05-17T13:12:55.035Z,3.70
2019-05-17T13:13:55.052Z,4.30
2019-05-17T13:14:55.022Z,3.90
2019-05-17T13:15:55.001Z,3.70
2019-05-17T13:16:55.021Z,4.10
2019-05-17T13:17:55.001Z,4.00